sensor_id;sensor_type;location;lat;lon;timestamp;P1;durP1;ratioP1;P2;durP2;ratioP2
57307;SDS011;43152;50.968;18.214;2023-07-02T00:08:52;11.70;;;5.10;;
57307;SDS011;43152;50.968;18.214;2023-07-02T00:27:33;25.40;;;8.30;;
57307;SDS011;43152;50.968;18.214;2023-07-02T00:37:15;12.00;;;5.40;;
57307;SDS011;43152;50.968;18.214;2023-07-02T00:47:09;14.00;;;7.70;;
57307;SDS011;43152;50.968;18.214;2023-07-02T00:56:55;19.50;;;8.00;;
57307;SDS011;43152;50.968;18.214;2023-07-02T01:06:44;12.60;;;6.90;;
57307;SDS011;43152;50.968;18.214;2023-07-02T01:16:47;15.20;;;6.50;;
57307;SDS011;43152;50.968;18.214;2023-07-02T01:26:51;13.90;;;5.90;;
57307;SDS011;43152;50.968;18.214;2023-07-02T01:36:36;11.10;;;5.20;;
57307;SDS011;43152;50.968;18.214;2023-07-02T01:46:21;13.90;;;6.70;;
57307;SDS011;43152;50.968;18.214;2023-07-02T01:56:04;12.90;;;5.90;;
57307;SDS011;43152;50.968;18.214;2023-07-02T02:05:47;11.10;;;5.00;;
57307;SDS011;43152;50.968;18.214;2023-07-02T02:15:30;11.60;;;6.10;;
57307;SDS011;43152;50.968;18.214;2023-07-02T02:25:13;14.90;;;7.40;;
57307;SDS011;43152;50.968;18.214;2023-07-02T02:34:56;13.60;;;6.60;;
57307;SDS011;43152;50.968;18.214;2023-07-02T02:44:40;11.20;;;4.90;;
57307;SDS011;43152;50.968;18.214;2023-07-02T02:54:23;10.50;;;4.60;;
57307;SDS011;43152;50.968;18.214;2023-07-02T03:04:06;13.50;;;6.50;;
57307;SDS011;43152;50.968;18.214;2023-07-02T03:13:50;7.90;;;3.60;;
57307;SDS011;43152;50.968;18.214;2023-07-02T03:23:33;8.40;;;3.70;;
57307;SDS011;43152;50.968;18.214;2023-07-02T03:33:16;14.90;;;5.10;;
57307;SDS011;43152;50.968;18.214;2023-07-02T03:42:59;14.30;;;4.10;;
57307;SDS011;43152;50.968;18.214;2023-07-02T03:52:41;9.00;;;3.70;;
57307;SDS011;43152;50.968;18.214;2023-07-02T04:07:58;7.90;;;2.90;;
57307;SDS011;43152;50.968;18.214;2023-07-02T04:17:42;5.10;;;2.10;;
57307;SDS011;43152;50.968;18.214;2023-07-02T04:27:25;4.40;;;1.90;;
57307;SDS011;43152;50.968;18.214;2023-07-02T04:37:10;3.00;;;1.20;;
57307;SDS011;43152;50.968;18.214;2023-07-02T04:46:59;2.40;;;1.10;;
57307;SDS011;43152;50.968;18.214;2023-07-02T04:56:47;3.10;;;1.00;;
57307;SDS011;43152;50.968;18.214;2023-07-02T05:06:31;3.50;;;1.30;;
57307;SDS011;43152;50.968;18.214;2023-07-02T05:16:14;2.30;;;0.80;;
57307;SDS011;43152;50.968;18.214;2023-07-02T05:25:57;3.40;;;0.70;;
57307;SDS011;43152;50.968;18.214;2023-07-02T05:35:40;1.60;;;0.60;;
57307;SDS011;43152;50.968;18.214;2023-07-02T05:45:23;0.50;;;0.40;;
57307;SDS011;43152;50.968;18.214;2023-07-02T05:55:07;6.70;;;1.00;;
57307;SDS011;43152;50.968;18.214;2023-07-02T06:04:55;3.00;;;0.70;;
57307;SDS011;43152;50.968;18.214;2023-07-02T06:14:40;4.50;;;0.70;;
57307;SDS011;43152;50.968;18.214;2023-07-02T06:24:25;1.70;;;0.60;;
57307;SDS011;43152;50.968;18.214;2023-07-02T06:48:24;0.50;;;0.30;;
57307;SDS011;43152;50.968;18.214;2023-07-02T06:58:08;1.50;;;0.50;;
57307;SDS011;43152;50.968;18.214;2023-07-02T07:07:56;2.00;;;0.50;;
57307;SDS011;43152;50.968;18.214;2023-07-02T07:17:40;1.10;;;0.50;;
57307;SDS011;43152;50.968;18.214;2023-07-02T07:27:25;10.00;;;0.90;;
57307;SDS011;43152;50.968;18.214;2023-07-02T07:37:08;1.40;;;0.60;;
57307;SDS011;43152;50.968;18.214;2023-07-02T07:46:55;1.70;;;0.70;;
57307;SDS011;43152;50.968;18.214;2023-07-02T07:56:38;1.60;;;0.50;;
57307;SDS011;43152;50.968;18.214;2023-07-02T08:06:21;1.80;;;0.80;;
57307;SDS011;43152;50.968;18.214;2023-07-02T08:16:04;3.70;;;0.80;;
57307;SDS011;43152;50.968;18.214;2023-07-02T08:25:46;2.00;;;0.60;;
57307;SDS011;43152;50.968;18.214;2023-07-02T08:35:28;3.80;;;0.70;;
57307;SDS011;43152;50.968;18.214;2023-07-02T08:45:12;2.90;;;0.60;;
57307;SDS011;43152;50.968;18.214;2023-07-02T08:54:57;2.50;;;1.10;;
57307;SDS011;43152;50.968;18.214;2023-07-02T09:04:42;2.00;;;0.90;;
57307;SDS011;43152;50.968;18.214;2023-07-02T09:14:53;1.30;;;0.70;;
57307;SDS011;43152;50.968;18.214;2023-07-02T09:24:50;1.20;;;0.50;;
57307;SDS011;43152;50.968;18.214;2023-07-02T09:34:36;1.40;;;0.70;;
57307;SDS011;43152;50.968;18.214;2023-07-02T09:44:24;0.80;;;0.50;;
57307;SDS011;43152;50.968;18.214;2023-07-02T09:54:23;1.70;;;0.60;;
57307;SDS011;43152;50.968;18.214;2023-07-02T10:04:12;1.10;;;0.50;;
57307;SDS011;43152;50.968;18.214;2023-07-02T10:14:02;1.60;;;0.70;;
57307;SDS011;43152;50.968;18.214;2023-07-02T10:24:13;4.40;;;0.80;;
57307;SDS011;43152;50.968;18.214;2023-07-02T10:34:15;0.80;;;0.30;;
57307;SDS011;43152;50.968;18.214;2023-07-02T10:44:08;2.30;;;0.80;;
57307;SDS011;43152;50.968;18.214;2023-07-02T10:54:00;2.30;;;0.60;;
57307;SDS011;43152;50.968;18.214;2023-07-02T11:03:55;1.50;;;0.80;;
57307;SDS011;43152;50.968;18.214;2023-07-02T11:13:45;1.60;;;0.80;;
57307;SDS011;43152;50.968;18.214;2023-07-02T11:23:41;3.10;;;0.30;;
57307;SDS011;43152;50.968;18.214;2023-07-02T11:43:17;3.20;;;0.90;;
57307;SDS011;43152;50.968;18.214;2023-07-02T11:52:59;3.50;;;1.00;;
57307;SDS011;43152;50.968;18.214;2023-07-02T12:02:42;5.90;;;2.10;;
57307;SDS011;43152;50.968;18.214;2023-07-02T12:12:25;0.70;;;0.40;;
57307;SDS011;43152;50.968;18.214;2023-07-02T12:22:07;4.30;;;0.70;;
57307;SDS011;43152;50.968;18.214;2023-07-02T12:31:49;1.00;;;0.70;;
57307;SDS011;43152;50.968;18.214;2023-07-02T12:41:33;2.00;;;1.00;;
57307;SDS011;43152;50.968;18.214;2023-07-02T12:51:15;3.00;;;0.90;;
57307;SDS011;43152;50.968;18.214;2023-07-02T13:00:58;1.80;;;0.60;;
57307;SDS011;43152;50.968;18.214;2023-07-02T13:10:41;1.30;;;0.50;;
57307;SDS011;43152;50.968;18.214;2023-07-02T13:20:26;2.30;;;0.90;;
57307;SDS011;43152;50.968;18.214;2023-07-02T13:30:09;3.10;;;0.60;;
57307;SDS011;43152;50.968;18.214;2023-07-02T13:39:51;2.90;;;1.00;;
57307;SDS011;43152;50.968;18.214;2023-07-02T13:49:33;2.20;;;0.70;;
57307;SDS011;43152;50.968;18.214;2023-07-02T13:59:17;2.50;;;0.80;;
57307;SDS011;43152;50.968;18.214;2023-07-02T14:09:01;5.80;;;0.70;;
57307;SDS011;43152;50.968;18.214;2023-07-02T14:18:44;2.70;;;0.80;;
57307;SDS011;43152;50.968;18.214;2023-07-02T14:28:26;1.60;;;0.80;;
57307;SDS011;43152;50.968;18.214;2023-07-02T14:38:19;8.70;;;0.80;;
57307;SDS011;43152;50.968;18.214;2023-07-02T14:48:06;0.20;;;0.20;;
57307;SDS011;43152;50.968;18.214;2023-07-02T14:57:48;2.30;;;0.70;;
57307;SDS011;43152;50.968;18.214;2023-07-02T15:07:30;1.90;;;0.90;;
57307;SDS011;43152;50.968;18.214;2023-07-02T15:17:12;5.00;;;1.50;;
57307;SDS011;43152;50.968;18.214;2023-07-02T15:26:55;2.90;;;0.70;;
57307;SDS011;43152;50.968;18.214;2023-07-02T15:36:44;0.70;;;0.40;;
57307;SDS011;43152;50.968;18.214;2023-07-02T15:46:31;3.10;;;0.70;;
57307;SDS011;43152;50.968;18.214;2023-07-02T15:56:17;1.60;;;0.50;;
57307;SDS011;43152;50.968;18.214;2023-07-02T16:06:07;3.30;;;0.80;;
57307;SDS011;43152;50.968;18.214;2023-07-02T16:15:50;1.50;;;0.50;;
57307;SDS011;43152;50.968;18.214;2023-07-02T16:25:33;2.00;;;0.80;;
57307;SDS011;43152;50.968;18.214;2023-07-02T16:35:16;3.90;;;0.70;;
57307;SDS011;43152;50.968;18.214;2023-07-02T16:44:58;8.30;;;1.10;;
57307;SDS011;43152;50.968;18.214;2023-07-02T16:54:51;1.90;;;0.80;;
57307;SDS011;43152;50.968;18.214;2023-07-02T17:04:34;3.50;;;0.90;;
57307;SDS011;43152;50.968;18.214;2023-07-02T17:14:35;1.80;;;0.60;;
57307;SDS011;43152;50.968;18.214;2023-07-02T17:24:30;3.40;;;0.70;;
57307;SDS011;43152;50.968;18.214;2023-07-02T17:34:16;4.20;;;0.70;;
57307;SDS011;43152;50.968;18.214;2023-07-02T17:44:07;2.40;;;0.90;;
57307;SDS011;43152;50.968;18.214;2023-07-02T17:53:50;14.10;;;1.60;;
57307;SDS011;43152;50.968;18.214;2023-07-02T18:03:32;8.00;;;1.20;;
57307;SDS011;43152;50.968;18.214;2023-07-02T18:13:15;1.70;;;0.80;;
57307;SDS011;43152;50.968;18.214;2023-07-02T18:23:03;3.70;;;1.30;;
57307;SDS011;43152;50.968;18.214;2023-07-02T18:33:03;2.30;;;1.10;;
57307;SDS011;43152;50.968;18.214;2023-07-02T18:42:49;2.60;;;0.90;;
57307;SDS011;43152;50.968;18.214;2023-07-02T18:52:33;2.50;;;1.10;;
57307;SDS011;43152;50.968;18.214;2023-07-02T19:02:19;4.90;;;1.60;;
57307;SDS011;43152;50.968;18.214;2023-07-02T19:12:05;1.70;;;0.70;;
57307;SDS011;43152;50.968;18.214;2023-07-02T19:21:55;9.90;;;5.00;;
57307;SDS011;43152;50.968;18.214;2023-07-02T19:31:39;8.10;;;4.10;;
57307;SDS011;43152;50.968;18.214;2023-07-02T19:41:27;5.90;;;1.20;;
57307;SDS011;43152;50.968;18.214;2023-07-02T19:54:21;4.90;;;2.00;;
57307;SDS011;43152;50.968;18.214;2023-07-02T20:04:06;5.40;;;1.70;;
57307;SDS011;43152;50.968;18.214;2023-07-02T20:13:57;6.00;;;2.30;;
57307;SDS011;43152;50.968;18.214;2023-07-02T20:23:46;5.00;;;2.10;;
57307;SDS011;43152;50.968;18.214;2023-07-02T20:33:32;6.50;;;2.10;;
57307;SDS011;43152;50.968;18.214;2023-07-02T20:43:28;6.90;;;2.00;;
57307;SDS011;43152;50.968;18.214;2023-07-02T20:53:16;6.40;;;2.30;;
57307;SDS011;43152;50.968;18.214;2023-07-02T21:02:59;9.50;;;1.90;;
57307;SDS011;43152;50.968;18.214;2023-07-02T21:12:42;5.90;;;2.80;;
57307;SDS011;43152;50.968;18.214;2023-07-02T21:22:25;4.80;;;2.00;;
57307;SDS011;43152;50.968;18.214;2023-07-02T21:32:09;6.60;;;2.80;;
57307;SDS011;43152;50.968;18.214;2023-07-02T21:49:10;7.70;;;2.90;;
57307;SDS011;43152;50.968;18.214;2023-07-02T21:58:52;4.60;;;1.90;;
57307;SDS011;43152;50.968;18.214;2023-07-02T22:21:24;5.00;;;2.40;;
57307;SDS011;43152;50.968;18.214;2023-07-02T22:31:06;13.30;;;4.00;;
57307;SDS011;43152;50.968;18.214;2023-07-02T22:40:49;8.00;;;3.20;;
57307;SDS011;43152;50.968;18.214;2023-07-02T22:50:31;13.60;;;4.50;;
57307;SDS011;43152;50.968;18.214;2023-07-02T23:00:14;10.20;;;3.70;;
57307;SDS011;43152;50.968;18.214;2023-07-02T23:10:03;8.90;;;3.60;;
57307;SDS011;43152;50.968;18.214;2023-07-02T23:19:49;9.50;;;3.20;;
57307;SDS011;43152;50.968;18.214;2023-07-02T23:29:38;7.30;;;3.10;;
57307;SDS011;43152;50.968;18.214;2023-07-02T23:39:36;3.60;;;0.80;;
57307;SDS011;43152;50.968;18.214;2023-07-02T23:49:19;10.60;;;3.40;;
57307;SDS011;43152;50.968;18.214;2023-07-02T23:59:02;8.00;;;2.70;;
